Terminal Aerodrome Forecast
Issued by NWS Grand Rapids, MI

Current Version | Previous Version | Text Only | Print | Product List | Glossary On
Versions: 1 2 3 4 5 6 7 8 9 10 11 12 13 14 15 16 17 18 19
000
FTUS43 KGRR 291400 AAA
TAFGRR
TAF AMD
KGRR 291419Z 2914/3012 15010KT P6SM -SHRA OVC040
     FM291630 16010KT P6SM VCTS OVC040CB
     FM292100 16010KT P6SM BKN050 OVC140
     FM300800 14008KT P6SM OVC025=

USA.gov is the U.S. government's official web portal to all federal, state and local government web resources and services.